sensor_id;sensor_type;location;lat;lon;timestamp;P1;durP1;ratioP1;P2;durP2;ratioP2
44246;SDS011;29922;0.000;0.000;2022-07-22T00:01:50;1.40;;;1.20;;
44246;SDS011;29922;0.000;0.000;2022-07-22T00:07:10;1.95;;;1.40;;
44246;SDS011;29922;0.000;0.000;2022-07-22T00:12:33;1.55;;;1.10;;
44246;SDS011;29922;0.000;0.000;2022-07-22T00:17:54;1.52;;;1.40;;
44246;SDS011;29922;0.000;0.000;2022-07-22T00:23:15;1.67;;;1.40;;
44246;SDS011;29922;0.000;0.000;2022-07-22T00:28:37;1.92;;;1.30;;
44246;SDS011;29922;0.000;0.000;2022-07-22T00:33:58;1.88;;;1.23;;
44246;SDS011;29922;0.000;0.000;2022-07-22T00:39:20;1.70;;;1.38;;
44246;SDS011;29922;0.000;0.000;2022-07-22T00:44:42;1.30;;;1.20;;
44246;SDS011;29922;0.000;0.000;2022-07-22T00:50:04;2.53;;;1.50;;
44246;SDS011;29922;0.000;0.000;2022-07-22T00:55:26;1.67;;;1.40;;
44246;SDS011;29922;0.000;0.000;2022-07-22T01:00:49;1.63;;;1.33;;
44246;SDS011;29922;0.000;0.000;2022-07-22T01:06:10;1.85;;;1.38;;
44246;SDS011;29922;0.000;0.000;2022-07-22T01:11:30;1.65;;;1.38;;
44246;SDS011;29922;0.000;0.000;2022-07-22T01:16:52;1.85;;;1.40;;
44246;SDS011;29922;0.000;0.000;2022-07-22T01:22:14;2.15;;;1.50;;
44246;SDS011;29922;0.000;0.000;2022-07-22T01:27:35;3.13;;;1.50;;
44246;SDS011;29922;0.000;0.000;2022-07-22T01:32:55;1.80;;;1.30;;
44246;SDS011;29922;0.000;0.000;2022-07-22T01:38:17;2.03;;;1.40;;
44246;SDS011;29922;0.000;0.000;2022-07-22T01:43:38;1.38;;;1.20;;
44246;SDS011;29922;0.000;0.000;2022-07-22T01:48:59;1.80;;;1.38;;
44246;SDS011;29922;0.000;0.000;2022-07-22T01:54:20;2.05;;;1.50;;
44246;SDS011;29922;0.000;0.000;2022-07-22T01:59:41;1.73;;;1.35;;
44246;SDS011;29922;0.000;0.000;2022-07-22T02:05:01;1.90;;;1.30;;
44246;SDS011;29922;0.000;0.000;2022-07-22T02:10:25;2.17;;;1.50;;
44246;SDS011;29922;0.000;0.000;2022-07-22T02:15:45;1.98;;;1.60;;
44246;SDS011;29922;0.000;0.000;2022-07-22T02:21:06;3.22;;;1.60;;
44246;SDS011;29922;0.000;0.000;2022-07-22T02:26:27;2.58;;;1.70;;
44246;SDS011;29922;0.000;0.000;2022-07-22T02:31:48;2.75;;;1.60;;
44246;SDS011;29922;0.000;0.000;2022-07-22T02:37:08;3.20;;;1.80;;
44246;SDS011;29922;0.000;0.000;2022-07-22T02:42:30;2.70;;;1.98;;
44246;SDS011;29922;0.000;0.000;2022-07-22T02:47:52;2.70;;;2.00;;
44246;SDS011;29922;0.000;0.000;2022-07-22T02:53:14;2.90;;;1.75;;
44246;SDS011;29922;0.000;0.000;2022-07-22T02:58:36;2.75;;;1.95;;
44246;SDS011;29922;0.000;0.000;2022-07-22T03:03:57;2.47;;;1.60;;
44246;SDS011;29922;0.000;0.000;2022-07-22T03:09:17;2.63;;;1.65;;
44246;SDS011;29922;0.000;0.000;2022-07-22T03:14:39;2.30;;;1.70;;
44246;SDS011;29922;0.000;0.000;2022-07-22T03:20:00;2.85;;;1.80;;
44246;SDS011;29922;0.000;0.000;2022-07-22T03:25:22;3.20;;;1.88;;
44246;SDS011;29922;0.000;0.000;2022-07-22T03:30:44;4.15;;;2.20;;
44246;SDS011;29922;0.000;0.000;2022-07-22T03:36:05;2.05;;;1.65;;
44246;SDS011;29922;0.000;0.000;2022-07-22T03:41:26;2.22;;;1.65;;
44246;SDS011;29922;0.000;0.000;2022-07-22T03:46:48;2.85;;;1.95;;
44246;SDS011;29922;0.000;0.000;2022-07-22T03:52:09;2.78;;;1.80;;
44246;SDS011;29922;0.000;0.000;2022-07-22T03:57:29;3.15;;;1.90;;
44246;SDS011;29922;0.000;0.000;2022-07-22T04:02:51;2.30;;;2.00;;
44246;SDS011;29922;0.000;0.000;2022-07-22T04:08:12;2.60;;;1.98;;
44246;SDS011;29922;0.000;0.000;2022-07-22T04:13:33;2.75;;;1.83;;
44246;SDS011;29922;0.000;0.000;2022-07-22T04:18:55;2.88;;;2.00;;
44246;SDS011;29922;0.000;0.000;2022-07-22T04:24:15;2.05;;;1.70;;
44246;SDS011;29922;0.000;0.000;2022-07-22T04:29:36;2.38;;;1.80;;
44246;SDS011;29922;0.000;0.000;2022-07-22T04:34:58;4.05;;;1.88;;
44246;SDS011;29922;0.000;0.000;2022-07-22T04:40:18;4.28;;;2.25;;
44246;SDS011;29922;0.000;0.000;2022-07-22T04:45:39;2.72;;;1.80;;
44246;SDS011;29922;0.000;0.000;2022-07-22T04:51:01;3.25;;;1.90;;
44246;SDS011;29922;0.000;0.000;2022-07-22T04:56:22;4.82;;;2.20;;
44246;SDS011;29922;0.000;0.000;2022-07-22T05:01:43;2.33;;;1.80;;
44246;SDS011;29922;0.000;0.000;2022-07-22T05:07:05;3.10;;;1.92;;
44246;SDS011;29922;0.000;0.000;2022-07-22T05:12:25;2.75;;;2.10;;
44246;SDS011;29922;0.000;0.000;2022-07-22T05:17:46;3.25;;;2.10;;
44246;SDS011;29922;0.000;0.000;2022-07-22T05:23:08;2.50;;;1.83;;
44246;SDS011;29922;0.000;0.000;2022-07-22T05:28:29;3.42;;;2.30;;
44246;SDS011;29922;0.000;0.000;2022-07-22T05:33:49;3.22;;;2.17;;
44246;SDS011;29922;0.000;0.000;2022-07-22T05:39:11;4.63;;;2.38;;
44246;SDS011;29922;0.000;0.000;2022-07-22T05:44:32;3.75;;;2.10;;
44246;SDS011;29922;0.000;0.000;2022-07-22T05:49:53;3.33;;;2.00;;
44246;SDS011;29922;0.000;0.000;2022-07-22T05:55:14;3.20;;;2.20;;
44246;SDS011;29922;0.000;0.000;2022-07-22T06:00:35;3.60;;;2.25;;
44246;SDS011;29922;0.000;0.000;2022-07-22T06:05:56;4.28;;;2.17;;
44246;SDS011;29922;0.000;0.000;2022-07-22T06:11:17;2.58;;;1.73;;
44246;SDS011;29922;0.000;0.000;2022-07-22T06:16:38;3.15;;;2.15;;
44246;SDS011;29922;0.000;0.000;2022-07-22T06:21:59;3.20;;;2.10;;
44246;SDS011;29922;0.000;0.000;2022-07-22T06:27:21;3.83;;;2.00;;
44246;SDS011;29922;0.000;0.000;2022-07-22T06:32:41;4.13;;;2.03;;
44246;SDS011;29922;0.000;0.000;2022-07-22T06:38:02;4.55;;;1.75;;
44246;SDS011;29922;0.000;0.000;2022-07-22T06:43:24;2.50;;;1.85;;
44246;SDS011;29922;0.000;0.000;2022-07-22T06:48:44;3.50;;;1.83;;
44246;SDS011;29922;0.000;0.000;2022-07-22T06:54:05;3.25;;;2.10;;
44246;SDS011;29922;0.000;0.000;2022-07-22T06:59:27;3.90;;;1.88;;
44246;SDS011;29922;0.000;0.000;2022-07-22T07:04:47;2.85;;;1.90;;
44246;SDS011;29922;0.000;0.000;2022-07-22T07:10:08;3.50;;;2.08;;
44246;SDS011;29922;0.000;0.000;2022-07-22T07:15:32;3.17;;;2.20;;
44246;SDS011;29922;0.000;0.000;2022-07-22T07:20:53;3.83;;;2.00;;
44246;SDS011;29922;0.000;0.000;2022-07-22T07:26:13;2.38;;;1.90;;
44246;SDS011;29922;0.000;0.000;2022-07-22T07:31:36;4.15;;;1.80;;
44246;SDS011;29922;0.000;0.000;2022-07-22T07:36:56;2.83;;;1.98;;
44246;SDS011;29922;0.000;0.000;2022-07-22T07:42:17;3.90;;;1.83;;
44246;SDS011;29922;0.000;0.000;2022-07-22T07:47:39;3.10;;;1.77;;
44246;SDS011;29922;0.000;0.000;2022-07-22T07:53:00;2.97;;;2.15;;
44246;SDS011;29922;0.000;0.000;2022-07-22T07:58:21;2.60;;;1.92;;
44246;SDS011;29922;0.000;0.000;2022-07-22T08:03:43;3.13;;;2.00;;
44246;SDS011;29922;0.000;0.000;2022-07-22T08:09:04;3.45;;;2.15;;
44246;SDS011;29922;0.000;0.000;2022-07-22T08:14:24;2.90;;;2.10;;
44246;SDS011;29922;0.000;0.000;2022-07-22T08:19:46;3.13;;;2.00;;
44246;SDS011;29922;0.000;0.000;2022-07-22T08:25:07;3.15;;;2.00;;
44246;SDS011;29922;0.000;0.000;2022-07-22T08:30:28;3.08;;;1.85;;
44246;SDS011;29922;0.000;0.000;2022-07-22T08:35:50;2.75;;;1.75;;
44246;SDS011;29922;0.000;0.000;2022-07-22T08:41:10;4.03;;;2.22;;
44246;SDS011;29922;0.000;0.000;2022-07-22T08:46:34;3.38;;;2.03;;
44246;SDS011;29922;0.000;0.000;2022-07-22T08:51:56;2.78;;;1.92;;
44246;SDS011;29922;0.000;0.000;2022-07-22T08:57:17;8.27;;;1.90;;
44246;SDS011;29922;0.000;0.000;2022-07-22T09:02:38;4.15;;;2.20;;
44246;SDS011;29922;0.000;0.000;2022-07-22T09:08:03;3.60;;;1.95;;
44246;SDS011;29922;0.000;0.000;2022-07-22T09:13:25;3.30;;;2.05;;
44246;SDS011;29922;0.000;0.000;2022-07-22T09:18:46;4.30;;;2.22;;
44246;SDS011;29922;0.000;0.000;2022-07-22T09:24:09;3.17;;;1.80;;
44246;SDS011;29922;0.000;0.000;2022-07-22T09:29:48;3.53;;;1.92;;
44246;SDS011;29922;0.000;0.000;2022-07-22T09:35:10;3.47;;;1.85;;
44246;SDS011;29922;0.000;0.000;2022-07-22T09:40:34;3.40;;;2.10;;
44246;SDS011;29922;0.000;0.000;2022-07-22T09:45:57;2.65;;;1.90;;
44246;SDS011;29922;0.000;0.000;2022-07-22T09:51:17;4.60;;;2.17;;
44246;SDS011;29922;0.000;0.000;2022-07-22T09:56:40;4.10;;;2.25;;
44246;SDS011;29922;0.000;0.000;2022-07-22T10:02:01;6.40;;;3.28;;
44246;SDS011;29922;0.000;0.000;2022-07-22T10:07:25;9.73;;;3.90;;
44246;SDS011;29922;0.000;0.000;2022-07-22T10:12:49;9.07;;;3.65;;
44246;SDS011;29922;0.000;0.000;2022-07-22T10:18:13;8.05;;;3.63;;
44246;SDS011;29922;0.000;0.000;2022-07-22T10:23:36;7.63;;;3.13;;
44246;SDS011;29922;0.000;0.000;2022-07-22T10:29:40;8.73;;;3.38;;
44246;SDS011;29922;0.000;0.000;2022-07-22T10:35:22;6.88;;;3.22;;
44246;SDS011;29922;0.000;0.000;2022-07-22T10:40:51;7.30;;;3.30;;
44246;SDS011;29922;0.000;0.000;2022-07-22T10:46:15;9.15;;;3.60;;
44246;SDS011;29922;0.000;0.000;2022-07-22T10:51:36;9.25;;;3.30;;
44246;SDS011;29922;0.000;0.000;2022-07-22T10:56:57;8.73;;;3.72;;
44246;SDS011;29922;0.000;0.000;2022-07-22T11:02:22;5.90;;;3.00;;
44246;SDS011;29922;0.000;0.000;2022-07-22T11:07:44;7.25;;;3.38;;
44246;SDS011;29922;0.000;0.000;2022-07-22T11:13:06;6.70;;;3.13;;
44246;SDS011;29922;0.000;0.000;2022-07-22T11:18:40;6.22;;;2.85;;
44246;SDS011;29922;0.000;0.000;2022-07-22T11:24:08;8.48;;;3.40;;
44246;SDS011;29922;0.000;0.000;2022-07-22T11:29:29;6.85;;;3.03;;
44246;SDS011;29922;0.000;0.000;2022-07-22T11:34:55;7.97;;;3.40;;
44246;SDS011;29922;0.000;0.000;2022-07-22T11:40:16;6.18;;;2.63;;
44246;SDS011;29922;0.000;0.000;2022-07-22T11:51:17;5.65;;;3.00;;
44246;SDS011;29922;0.000;0.000;2022-07-22T11:56:38;6.53;;;3.05;;
44246;SDS011;29922;0.000;0.000;2022-07-22T12:01:59;6.68;;;3.13;;
44246;SDS011;29922;0.000;0.000;2022-07-22T12:07:21;4.63;;;2.72;;
44246;SDS011;29922;0.000;0.000;2022-07-22T12:12:43;5.65;;;2.80;;
44246;SDS011;29922;0.000;0.000;2022-07-22T12:18:17;4.90;;;2.67;;
44246;SDS011;29922;0.000;0.000;2022-07-22T12:23:40;5.45;;;2.70;;
44246;SDS011;29922;0.000;0.000;2022-07-22T12:29:18;4.55;;;2.60;;
44246;SDS011;29922;0.000;0.000;2022-07-22T12:34:43;8.02;;;3.22;;
44246;SDS011;29922;0.000;0.000;2022-07-22T12:40:07;4.68;;;2.78;;
44246;SDS011;29922;0.000;0.000;2022-07-22T12:45:34;5.18;;;2.40;;
44246;SDS011;29922;0.000;0.000;2022-07-22T12:50:57;5.18;;;2.58;;
44246;SDS011;29922;0.000;0.000;2022-07-22T12:56:20;5.25;;;2.53;;
44246;SDS011;29922;0.000;0.000;2022-07-22T13:01:40;4.68;;;2.38;;
44246;SDS011;29922;0.000;0.000;2022-07-22T13:07:01;5.72;;;2.97;;
44246;SDS011;29922;0.000;0.000;2022-07-22T13:12:22;7.35;;;3.22;;
44246;SDS011;29922;0.000;0.000;2022-07-22T13:17:43;6.10;;;3.00;;
44246;SDS011;29922;0.000;0.000;2022-07-22T13:23:05;6.57;;;3.42;;
44246;SDS011;29922;0.000;0.000;2022-07-22T13:28:27;7.07;;;3.25;;
44246;SDS011;29922;0.000;0.000;2022-07-22T13:33:48;8.48;;;3.40;;
44246;SDS011;29922;0.000;0.000;2022-07-22T13:39:08;7.32;;;3.58;;
44246;SDS011;29922;0.000;0.000;2022-07-22T13:44:30;6.97;;;3.47;;
44246;SDS011;29922;0.000;0.000;2022-07-22T13:49:52;5.80;;;3.30;;
44246;SDS011;29922;0.000;0.000;2022-07-22T13:55:13;7.97;;;3.63;;
44246;SDS011;29922;0.000;0.000;2022-07-22T14:00:35;8.50;;;3.95;;
44246;SDS011;29922;0.000;0.000;2022-07-22T14:05:55;7.22;;;3.70;;
44246;SDS011;29922;0.000;0.000;2022-07-22T14:11:15;8.05;;;3.83;;
44246;SDS011;29922;0.000;0.000;2022-07-22T14:16:37;7.57;;;3.70;;
44246;SDS011;29922;0.000;0.000;2022-07-22T14:21:58;7.45;;;3.42;;
44246;SDS011;29922;0.000;0.000;2022-07-22T14:27:18;6.70;;;3.50;;
44246;SDS011;29922;0.000;0.000;2022-07-22T14:32:40;6.38;;;3.15;;
44246;SDS011;29922;0.000;0.000;2022-07-22T14:38:01;6.43;;;3.15;;
44246;SDS011;29922;0.000;0.000;2022-07-22T14:43:22;6.57;;;3.40;;
44246;SDS011;29922;0.000;0.000;2022-07-22T14:48:44;6.35;;;3.38;;
44246;SDS011;29922;0.000;0.000;2022-07-22T14:54:07;5.45;;;3.15;;
44246;SDS011;29922;0.000;0.000;2022-07-22T14:59:30;7.95;;;3.15;;
44246;SDS011;29922;0.000;0.000;2022-07-22T15:04:52;5.20;;;3.10;;
44246;SDS011;29922;0.000;0.000;2022-07-22T15:10:13;5.40;;;3.03;;
44246;SDS011;29922;0.000;0.000;2022-07-22T15:15:34;5.63;;;3.60;;
44246;SDS011;29922;0.000;0.000;2022-07-22T15:20:56;6.45;;;3.22;;
44246;SDS011;29922;0.000;0.000;2022-07-22T15:26:17;5.88;;;3.38;;
44246;SDS011;29922;0.000;0.000;2022-07-22T15:31:37;5.85;;;3.40;;
44246;SDS011;29922;0.000;0.000;2022-07-22T15:36:59;5.35;;;3.08;;
44246;SDS011;29922;0.000;0.000;2022-07-22T15:42:20;5.18;;;3.33;;
44246;SDS011;29922;0.000;0.000;2022-07-22T15:47:40;5.10;;;3.10;;
44246;SDS011;29922;0.000;0.000;2022-07-22T15:53:02;5.25;;;2.88;;
44246;SDS011;29922;0.000;0.000;2022-07-22T15:58:23;4.65;;;3.33;;
44246;SDS011;29922;0.000;0.000;2022-07-22T16:04:01;4.80;;;3.03;;
44246;SDS011;29922;0.000;0.000;2022-07-22T16:09:24;5.75;;;3.33;;
44246;SDS011;29922;0.000;0.000;2022-07-22T16:14:44;4.88;;;3.20;;
44246;SDS011;29922;0.000;0.000;2022-07-22T16:20:05;7.50;;;3.17;;
44246;SDS011;29922;0.000;0.000;2022-07-22T16:25:29;6.43;;;3.63;;
44246;SDS011;29922;0.000;0.000;2022-07-22T16:30:50;4.88;;;3.10;;
44246;SDS011;29922;0.000;0.000;2022-07-22T16:36:10;6.03;;;3.03;;
44246;SDS011;29922;0.000;0.000;2022-07-22T16:41:32;5.53;;;3.45;;
44246;SDS011;29922;0.000;0.000;2022-07-22T16:46:53;4.50;;;3.30;;
44246;SDS011;29922;0.000;0.000;2022-07-22T16:52:14;6.05;;;3.30;;
44246;SDS011;29922;0.000;0.000;2022-07-22T16:57:37;4.75;;;3.15;;
44246;SDS011;29922;0.000;0.000;2022-07-22T17:02:57;4.20;;;3.17;;
44246;SDS011;29922;0.000;0.000;2022-07-22T17:08:18;4.70;;;3.08;;
44246;SDS011;29922;0.000;0.000;2022-07-22T17:13:40;4.78;;;3.30;;
44246;SDS011;29922;0.000;0.000;2022-07-22T17:19:03;3.22;;;2.80;;
44246;SDS011;29922;0.000;0.000;2022-07-22T17:24:23;4.53;;;3.30;;
44246;SDS011;29922;0.000;0.000;2022-07-22T17:29:46;4.10;;;3.13;;
44246;SDS011;29922;0.000;0.000;2022-07-22T17:35:07;4.18;;;3.15;;
44246;SDS011;29922;0.000;0.000;2022-07-22T17:40:27;4.75;;;3.17;;
44246;SDS011;29922;0.000;0.000;2022-07-22T17:45:49;4.15;;;2.78;;
44246;SDS011;29922;0.000;0.000;2022-07-22T17:51:10;5.05;;;2.85;;
44246;SDS011;29922;0.000;0.000;2022-07-22T17:56:30;5.43;;;3.30;;
44246;SDS011;29922;0.000;0.000;2022-07-22T18:01:52;4.97;;;3.17;;
44246;SDS011;29922;0.000;0.000;2022-07-22T18:07:13;5.35;;;3.30;;
44246;SDS011;29922;0.000;0.000;2022-07-22T18:12:33;6.20;;;3.78;;
44246;SDS011;29922;0.000;0.000;2022-07-22T18:17:56;7.30;;;4.30;;
44246;SDS011;29922;0.000;0.000;2022-07-22T18:23:16;6.15;;;3.58;;
44246;SDS011;29922;0.000;0.000;2022-07-22T18:28:37;5.70;;;3.55;;
44246;SDS011;29922;0.000;0.000;2022-07-22T18:34:00;5.70;;;3.65;;
44246;SDS011;29922;0.000;0.000;2022-07-22T18:39:21;4.78;;;3.30;;
44246;SDS011;29922;0.000;0.000;2022-07-22T18:44:41;6.55;;;3.25;;
44246;SDS011;29922;0.000;0.000;2022-07-22T18:50:03;5.15;;;3.35;;
44246;SDS011;29922;0.000;0.000;2022-07-22T18:55:25;4.32;;;3.17;;
44246;SDS011;29922;0.000;0.000;2022-07-22T19:00:45;5.32;;;3.03;;
44246;SDS011;29922;0.000;0.000;2022-07-22T19:06:07;4.75;;;3.05;;
44246;SDS011;29922;0.000;0.000;2022-07-22T19:11:28;4.15;;;3.03;;
44246;SDS011;29922;0.000;0.000;2022-07-22T19:16:49;4.57;;;3.03;;
44246;SDS011;29922;0.000;0.000;2022-07-22T19:22:11;4.38;;;3.10;;
44246;SDS011;29922;0.000;0.000;2022-07-22T19:27:31;4.35;;;3.20;;
44246;SDS011;29922;0.000;0.000;2022-07-22T19:32:52;3.97;;;3.05;;
44246;SDS011;29922;0.000;0.000;2022-07-22T19:38:14;4.90;;;3.17;;
44246;SDS011;29922;0.000;0.000;2022-07-22T19:43:35;4.93;;;3.10;;
44246;SDS011;29922;0.000;0.000;2022-07-22T19:48:55;5.05;;;3.20;;
44246;SDS011;29922;0.000;0.000;2022-07-22T19:54:18;4.55;;;3.10;;
44246;SDS011;29922;0.000;0.000;2022-07-22T19:59:39;4.78;;;3.13;;
44246;SDS011;29922;0.000;0.000;2022-07-22T20:04:59;4.75;;;3.28;;
44246;SDS011;29922;0.000;0.000;2022-07-22T20:10:21;4.50;;;3.10;;
44246;SDS011;29922;0.000;0.000;2022-07-22T20:15:42;3.63;;;2.55;;
44246;SDS011;29922;0.000;0.000;2022-07-22T20:21:02;4.78;;;3.10;;
44246;SDS011;29922;0.000;0.000;2022-07-22T20:26:25;3.88;;;2.85;;
44246;SDS011;29922;0.000;0.000;2022-07-22T20:31:45;4.00;;;2.80;;
44246;SDS011;29922;0.000;0.000;2022-07-22T20:37:07;4.13;;;3.10;;
44246;SDS011;29922;0.000;0.000;2022-07-22T20:42:29;4.15;;;3.20;;
44246;SDS011;29922;0.000;0.000;2022-07-22T20:47:49;5.22;;;3.33;;
44246;SDS011;29922;0.000;0.000;2022-07-22T20:53:11;4.90;;;3.33;;
44246;SDS011;29922;0.000;0.000;2022-07-22T20:58:33;4.38;;;2.97;;
44246;SDS011;29922;0.000;0.000;2022-07-22T21:03:53;4.45;;;3.20;;
44246;SDS011;29922;0.000;0.000;2022-07-22T21:09:14;4.35;;;3.17;;
44246;SDS011;29922;0.000;0.000;2022-07-22T21:14:36;4.50;;;3.20;;
44246;SDS011;29922;0.000;0.000;2022-07-22T21:19:56;4.72;;;2.78;;
44246;SDS011;29922;0.000;0.000;2022-07-22T21:25:17;3.95;;;3.03;;
44246;SDS011;29922;0.000;0.000;2022-07-22T21:30:39;5.45;;;3.40;;
44246;SDS011;29922;0.000;0.000;2022-07-22T21:36:00;6.18;;;3.35;;
44246;SDS011;29922;0.000;0.000;2022-07-22T21:41:20;4.70;;;3.45;;
44246;SDS011;29922;0.000;0.000;2022-07-22T21:46:42;4.78;;;3.35;;
44246;SDS011;29922;0.000;0.000;2022-07-22T21:52:03;4.18;;;3.15;;
44246;SDS011;29922;0.000;0.000;2022-07-22T21:57:24;5.30;;;3.35;;
44246;SDS011;29922;0.000;0.000;2022-07-22T22:02:45;5.00;;;3.28;;
44246;SDS011;29922;0.000;0.000;2022-07-22T22:08:06;5.13;;;3.38;;
44246;SDS011;29922;0.000;0.000;2022-07-22T22:13:28;6.00;;;3.40;;
44246;SDS011;29922;0.000;0.000;2022-07-22T22:18:51;4.22;;;3.15;;
44246;SDS011;29922;0.000;0.000;2022-07-22T22:24:13;4.13;;;3.22;;
44246;SDS011;29922;0.000;0.000;2022-07-22T22:29:34;4.63;;;3.28;;
44246;SDS011;29922;0.000;0.000;2022-07-22T22:34:56;4.20;;;3.25;;
44246;SDS011;29922;0.000;0.000;2022-07-22T22:40:16;4.85;;;3.10;;
44246;SDS011;29922;0.000;0.000;2022-07-22T22:45:37;4.45;;;3.55;;
44246;SDS011;29922;0.000;0.000;2022-07-22T22:50:58;4.35;;;3.25;;
44246;SDS011;29922;0.000;0.000;2022-07-22T22:56:19;4.40;;;3.25;;
44246;SDS011;29922;0.000;0.000;2022-07-22T23:01:39;4.63;;;2.85;;
44246;SDS011;29922;0.000;0.000;2022-07-22T23:07:01;3.90;;;3.05;;
44246;SDS011;29922;0.000;0.000;2022-07-22T23:12:22;4.55;;;2.95;;
44246;SDS011;29922;0.000;0.000;2022-07-22T23:17:42;4.32;;;3.03;;
44246;SDS011;29922;0.000;0.000;2022-07-22T23:23:04;4.43;;;2.95;;
44246;SDS011;29922;0.000;0.000;2022-07-22T23:28:24;4.00;;;2.80;;
44246;SDS011;29922;0.000;0.000;2022-07-22T23:33:45;2.83;;;2.53;;
44246;SDS011;29922;0.000;0.000;2022-07-22T23:39:07;4.78;;;3.00;;
44246;SDS011;29922;0.000;0.000;2022-07-22T23:44:28;4.35;;;3.20;;
44246;SDS011;29922;0.000;0.000;2022-07-22T23:49:49;4.88;;;3.47;;
44246;SDS011;29922;0.000;0.000;2022-07-22T23:55:11;6.85;;;3.40;;
